Time;durP1;ratioP1;P1;durP2;ratioP2;P2;SDS_P1;SDS_P2;PMS_P1;PMS_P2;Temp;Humidity;BMP_temperature;BMP_pressure;BME280_temperature;BME280_humidity;BME280_pressure;Samples;Min_cycle;Max_cycle;Signal;HPM_P1;HPM_P2
2021/03/13 00:00:20;;;;;;;10.82;2.92;;;;;;;5.46;88.55;98932.50;5067660;28;20125;-73
2021/03/13 00:02:48;;;;;;;7.25;2.50;;;;;;;5.45;88.38;98920.19;5084049;28;20410;-74
2021/03/13 00:05:22;;;;;;;9.23;2.72;;;;;;;5.50;88.65;98915.47;5086549;28;20041;-74
2021/03/13 00:07:48;;;;;;;8.68;2.83;;;;;;;5.55;87.26;98904.63;5087285;28;20053;-73
2021/03/13 00:10:14;;;;;;;17.50;3.08;;;;;;;5.53;87.28;98907.38;5080042;28;20078;-73
2021/03/13 00:12:40;;;;;;;8.98;2.40;;;;;;;5.63;86.66;98920.03;5060464;28;20445;-73
2021/03/13 00:15:07;;;;;;;7.88;2.80;;;;;;;5.60;87.72;98915.78;5077399;28;20049;-73
2021/03/13 00:17:33;;;;;;;8.75;3.05;;;;;;;5.61;87.23;98920.13;5059964;28;20049;-78
2021/03/13 00:20:00;;;;;;;11.18;3.40;;;;;;;5.56;87.65;98909.81;5043580;28;20057;-71
2021/03/13 00:22:26;;;;;;;9.77;2.78;;;;;;;5.57;88.12;98908.03;5058593;28;20324;-73
2021/03/13 00:24:52;;;;;;;11.32;3.13;;;;;;;5.52;88.87;98900.38;5059246;28;20049;-76
2021/03/13 00:27:19;;;;;;;11.50;3.40;;;;;;;5.49;89.20;98889.97;5042277;28;20056;-76
2021/03/13 00:29:45;;;;;;;8.65;2.75;;;;;;;5.53;88.33;98893.28;5041098;28;20055;-71
2021/03/13 00:32:11;;;;;;;6.95;3.05;;;;;;;5.51;89.05;98890.72;5040177;28;20087;-74
2021/03/13 00:34:38;;;;;;;14.82;3.95;;;;;;;5.46;88.85;98892.81;5057707;28;20056;-77
2021/03/13 00:37:04;;;;;;;9.13;2.78;;;;;;;5.45;88.43;98896.38;5057554;28;20049;-77
2021/03/13 00:39:41;;;;;;;8.82;3.33;;;;;;;5.40;89.39;98890.53;5057070;28;20048;-75
2021/03/13 00:42:07;;;;;;;10.13;3.05;;;;;;;5.31;90.29;98876.06;5057133;28;20045;-73
2021/03/13 00:44:33;;;;;;;6.85;2.42;;;;;;;5.26;90.35;98878.13;5055905;28;20186;-72
2021/03/13 00:47:00;;;;;;;9.55;2.60;;;;;;;5.23;90.18;98873.03;5056915;28;20048;-73
2021/03/13 00:49:26;;;;;;;9.35;2.40;;;;;;;5.13;90.35;98854.19;5056726;28;20084;-74
2021/03/13 00:51:52;;;;;;;8.88;2.50;;;;;;;5.14;91.23;98845.31;5057152;28;20064;-75
2021/03/13 00:54:18;;;;;;;6.28;2.20;;;;;;;5.08;90.25;98848.31;5056955;28;20052;-74
2021/03/13 00:56:45;;;;;;;9.52;2.78;;;;;;;5.08;91.28;98845.69;5055639;28;20049;-74
2021/03/13 00:59:11;;;;;;;7.72;2.60;;;;;;;5.08;92.39;98850.97;5069838;28;20052;-76
2021/03/13 01:01:37;;;;;;;5.22;3.08;;;;;;;5.05;91.96;98830.84;5096348;28;20048;-77
2021/03/13 01:04:03;;;;;;;7.05;3.00;;;;;;;5.10;91.97;98817.34;5096677;28;20106;-76
2021/03/13 01:06:29;;;;;;;8.93;3.25;;;;;;;5.07;92.31;98822.81;5078784;28;20056;-75
2021/03/13 01:08:55;;;;;;;9.20;3.25;;;;;;;5.06;93.02;98808.75;5096321;28;20059;-76
2021/03/13 01:11:21;;;;;;;8.05;3.03;;;;;;;5.03;92.84;98804.47;5096359;28;20348;-76
2021/03/13 01:13:47;;;;;;;9.40;3.50;;;;;;;4.98;94.05;98800.44;5078527;28;20048;-74
2021/03/13 01:16:14;;;;;;;6.30;3.15;;;;;;;5.00;94.18;98798.53;5096363;28;20345;-74
2021/03/13 01:18:40;;;;;;;4.88;3.30;;;;;;;4.96;92.99;98778.53;5096698;28;20329;-73
2021/03/13 01:21:07;;;;;;;4.53;3.03;;;;;;;5.00;93.45;98785.31;5078777;28;20475;-73
2021/03/13 01:23:33;;;;;;;8.02;3.28;;;;;;;4.99;93.70;98776.53;5096052;28;20136;-72
2021/03/13 01:26:00;;;;;;;7.00;3.42;;;;;;;5.03;93.69;98764.81;5096139;28;20105;-73
2021/03/13 01:28:26;;;;;;;5.10;3.30;;;;;;;4.96;94.05;98752.91;5096414;28;20052;-73
2021/03/13 01:30:59;;;;;;;9.23;3.88;;;;;;;4.99;94.86;98759.81;5096213;28;20124;-73
2021/03/13 01:33:25;;;;;;;5.50;3.20;;;;;;;4.99;94.69;98755.38;5096115;28;20725;-73
2021/03/13 01:35:51;;;;;;;7.05;2.75;;;;;;;4.98;94.80;98748.41;5095902;28;20065;-73
2021/03/13 01:38:17;;;;;;;7.55;3.20;;;;;;;4.99;94.85;98747.47;5095983;28;20048;-73
2021/03/13 01:40:44;;;;;;;6.75;2.95;;;;;;;5.00;94.76;98753.56;5078274;28;20048;-73
2021/03/13 01:43:10;;;;;;;5.22;2.45;;;;;;;4.98;95.05;98743.13;5078186;28;20051;-73
2021/03/13 01:45:36;;;;;;;5.15;2.40;;;;;;;4.97;94.87;98722.88;5077906;28;20048;-73
2021/03/13 01:48:03;;;;;;;5.97;3.28;;;;;;;4.98;94.77;98724.59;5095871;28;20056;-74
2021/03/13 01:50:31;;;;;;;4.07;1.98;;;;;;;4.95;94.16;98700.97;5095954;28;20052;-74
2021/03/13 01:52:57;;;;;;;6.07;1.98;;;;;;;4.99;93.97;98702.50;5096005;28;20056;-74
2021/03/13 01:55:24;;;;;;;5.80;1.88;;;;;;;4.97;94.39;98690.31;5095600;28;20413;-74
2021/03/13 01:57:50;;;;;;;5.57;1.70;;;;;;;4.98;93.88;98692.00;5095700;28;20395;-74
2021/03/13 02:00:19;;;;;;;5.60;2.00;;;;;;;5.00;93.82;98680.41;5062192;28;20131;-74
2021/03/13 02:02:46;;;;;;;6.60;1.65;;;;;;;4.99;94.09;98683.13;5075189;28;20048;-73
2021/03/13 02:05:23;;;;;;;3.88;1.70;;;;;;;5.02;94.23;98680.31;5075404;28;20082;-73
2021/03/13 02:08:16;;;;;;;4.25;1.50;;;;;;;5.07;92.93;98666.81;5074969;28;20063;-74
2021/03/13 02:11:27;;;;;;;5.97;1.63;;;;;;;5.08;93.54;98677.28;5075044;28;20056;-74
2021/03/13 02:14:02;;;;;;;;;;;;;;;5.13;92.76;98664.59;5060663;28;20049;-74
2021/03/13 02:16:37;;;;;;;5.97;1.67;;;;;;;5.06;93.50;98644.78;5075089;28;19920;-73
2021/03/13 02:19:31;;;;;;;3.65;1.67;;;;;;;5.08;93.70;98642.03;5075481;28;20048;-74
2021/03/13 02:22:06;;;;;;;6.97;1.70;;;;;;;5.08;93.46;98642.03;5057620;28;20044;-74
2021/03/13 02:24:39;;;;;;;6.75;1.42;;;;;;;5.12;93.66;98622.41;5075267;28;20056;-74
2021/03/13 02:27:13;;;;;;;5.18;1.45;;;;;;;5.18;93.07;98614.09;5074977;28;20064;-73
2021/03/13 02:29:45;;;;;;;5.03;1.55;;;;;;;5.18;93.82;98611.44;5074951;28;20056;-73
2021/03/13 02:32:37;;;;;;;5.32;1.60;;;;;;;5.19;94.11;98596.41;5074888;28;20048;-73
2021/03/13 02:35:17;;;;;;;3.92;1.55;;;;;;;5.18;93.37;98590.28;5057175;28;20071;-73
2021/03/13 02:37:50;;;;;;;5.65;2.17;;;;;;;5.16;93.69;98577.16;5074838;28;20098;-73
2021/03/13 02:40:19;;;;;;;6.35;1.52;;;;;;;5.06;92.99;98551.41;5057425;28;20061;-72
2021/03/13 02:42:53;;;;;;;8.60;1.50;;;;;;;5.19;93.52;98564.66;5075118;28;20072;-73
2021/03/13 02:45:28;;;;;;;5.35;1.27;;;;;;;5.23;93.26;98560.88;5074800;28;20488;-73
2021/03/13 02:47:55;;;;;;;3.70;1.20;;;;;;;5.15;93.68;98548.16;5074945;28;20052;-73
2021/03/13 02:50:22;;;;;;;3.58;1.35;;;;;;;5.20;94.21;98546.06;5074929;28;20122;-74
2021/03/13 02:52:52;;;;;;;6.05;1.15;;;;;;;5.20;93.12;98543.41;5074792;28;20102;-73
2021/03/13 02:55:20;;;;;;;6.38;1.23;;;;;;;5.24;93.94;98521.09;5073876;28;20044;-73
2021/03/13 02:57:47;;;;;;;4.20;1.30;;;;;;;5.26;94.03;98521.00;5075946;28;20048;-73
2021/03/13 03:00:16;;;;;;;3.53;1.20;;;;;;;5.27;93.65;98506.81;5076399;28;20052;-73
2021/03/13 03:02:45;;;;;;;4.00;0.95;;;;;;;5.29;93.58;98513.69;5075204;28;20303;-73
2021/03/13 03:05:16;;;;;;;3.78;1.33;;;;;;;5.30;93.23;98506.63;5074862;28;20044;-73
2021/03/13 03:07:43;;;;;;;3.28;0.85;;;;;;;5.37;92.98;98501.75;5057446;28;20049;-74
2021/03/13 03:10:10;;;;;;;3.30;1.05;;;;;;;5.41;92.58;98487.41;5077226;28;20071;-73
2021/03/13 03:12:37;;;;;;;3.35;1.05;;;;;;;5.46;92.38;98473.84;5095037;28;20395;-73
2021/03/13 03:15:06;;;;;;;3.97;1.35;;;;;;;5.44;92.87;98468.66;5093672;28;20433;-73
2021/03/13 03:17:33;;;;;;;5.53;1.83;;;;;;;5.51;92.15;98459.34;5094895;28;20047;-73
2021/03/13 03:19:59;;;;;;;4.57;0.95;;;;;;;5.48;92.31;98446.34;5094620;28;20134;-73
2021/03/13 03:22:26;;;;;;;8.07;1.70;;;;;;;5.45;92.49;98443.88;5094976;28;20059;-74
2021/03/13 03:24:54;;;;;;;7.32;2.03;;;;;;;5.56;92.29;98454.59;5098362;28;20048;-72
2021/03/13 03:27:20;;;;;;;5.15;1.23;;;;;;;5.50;93.06;98433.84;5098642;28;20121;-73
2021/03/13 03:29:46;;;;;;;4.13;1.73;;;;;;;5.62;91.59;98429.50;5098478;28;20082;-73
2021/03/13 03:32:25;;;;;;;3.47;1.00;;;;;;;5.62;92.93;98416.28;5098652;28;20152;-73
2021/03/13 03:34:52;;;;;;;6.72;1.48;;;;;;;5.64;92.32;98413.53;5098641;28;20474;-73
2021/03/13 03:37:18;;;;;;;9.45;1.38;;;;;;;5.56;92.36;98398.19;5098592;28;20056;-73
2021/03/13 03:39:44;;;;;;;6.20;1.30;;;;;;;5.61;93.10;98403.16;5080644;28;20061;-73
2021/03/13 03:42:12;;;;;;;7.90;1.85;;;;;;;5.60;92.58;98401.47;5098293;28;20056;-72
2021/03/13 03:44:46;;;;;;;7.53;1.55;;;;;;;5.65;92.93;98388.75;5098266;28;20101;-74
2021/03/13 03:47:13;;;;;;;3.78;1.10;;;;;;;5.60;93.28;98385.59;5098126;28;20121;-74
2021/03/13 03:49:40;;;;;;;11.05;3.17;;;;;;;5.60;94.17;98373.19;5098183;28;20429;-74
2021/03/13 03:52:10;;;;;;;6.05;1.10;;;;;;;5.50;92.87;98343.88;5098260;28;20052;-74
2021/03/13 03:54:39;;;;;;;5.32;1.45;;;;;;;5.61;93.99;98358.16;5098104;28;20079;-74
2021/03/13 03:57:07;;;;;;;8.05;2.17;;;;;;;5.69;92.67;98347.88;5098345;28;20051;-74
2021/03/13 03:59:35;;;;;;;6.13;1.73;;;;;;;5.64;93.39;98334.13;5087997;28;20056;-74
2021/03/13 04:02:03;;;;;;;6.07;1.25;;;;;;;5.63;93.14;98327.16;5077903;28;20048;-74
2021/03/13 04:04:30;;;;;;;5.35;1.27;;;;;;;5.60;93.39;98330.84;5077330;28;20421;-74
2021/03/13 04:06:58;;;;;;;5.05;1.10;;;;;;;5.57;93.72;98323.13;5077332;28;20057;-74
2021/03/13 04:09:27;;;;;;;6.53;1.17;;;;;;;5.65;92.96;98319.94;5077180;28;20061;-74
2021/03/13 04:11:56;;;;;;;6.22;1.15;;;;;;;5.63;93.33;98317.41;5077818;28;20052;-74
2021/03/13 04:14:24;;;;;;;7.32;1.10;;;;;;;5.63;93.70;98292.72;5077298;28;20139;-74
2021/03/13 04:16:51;;;;;;;3.65;1.05;;;;;;;5.68;92.97;98301.19;5059750;28;20063;-74
2021/03/13 04:19:18;;;;;;;3.08;0.95;;;;;;;5.67;92.50;98276.53;5059799;28;20052;-74
2021/03/13 04:21:46;;;;;;;5.20;1.10;;;;;;;5.62;92.76;98267.22;5077615;28;20052;-72
2021/03/13 04:24:13;;;;;;;6.47;0.88;;;;;;;5.68;92.99;98259.69;5077723;28;20118;-75
2021/03/13 04:26:41;;;;;;;2.58;0.82;;;;;;;5.68;93.31;98251.75;5059510;28;20102;-73
2021/03/13 04:29:07;;;;;;;4.07;0.93;;;;;;;5.66;93.21;98240.44;5076226;28;20102;-73
2021/03/13 04:31:35;;;;;;;4.85;1.15;;;;;;;5.75;92.55;98251.31;5077169;28;20052;-73
2021/03/13 04:34:03;;;;;;;3.88;0.98;;;;;;;5.64;93.02;98242.34;5076739;28;20088;-73
2021/03/13 04:36:32;;;;;;;6.68;0.98;;;;;;;5.74;93.06;98250.47;5076467;28;20052;-73
2021/03/13 04:39:01;;;;;;;5.50;1.27;;;;;;;5.59;93.27;98210.06;5075820;28;20091;-73
2021/03/13 04:41:28;;;;;;;8.02;1.13;;;;;;;5.77;93.43;98244.13;5077086;28;20071;-73
2021/03/13 04:43:55;;;;;;;2.67;0.90;;;;;;;5.72;93.48;98204.72;5076935;28;20056;-73
2021/03/13 04:46:21;;;;;;;4.00;0.95;;;;;;;5.90;92.42;98209.66;5059314;28;20495;-73
2021/03/13 04:48:49;;;;;;;5.20;0.98;;;;;;;5.89;91.53;98184.13;5076794;28;20102;-73
2021/03/13 04:51:19;;;;;;;3.47;0.88;;;;;;;5.95;91.24;98204.84;5059297;28;20052;-73
2021/03/13 04:53:46;;;;;;;2.80;1.00;;;;;;;6.04;90.17;98196.25;5076584;28;20063;-73
2021/03/13 04:56:12;;;;;;;5.82;0.93;;;;;;;5.96;90.54;98196.81;5076624;28;20445;-73
2021/03/13 04:58:39;;;;;;;1.70;0.80;;;;;;;6.09;89.69;98202.06;5075625;28;20067;-74
2021/03/13 05:01:05;;;;;;;3.25;0.90;;;;;;;6.13;89.43;98193.88;5076724;28;20044;-73
2021/03/13 05:03:38;;;;;;;5.28;0.98;;;;;;;6.06;89.72;98175.78;5076434;28;20144;-73
2021/03/13 05:06:05;;;;;;;4.53;1.35;;;;;;;6.05;89.95;98191.81;5059083;28;20333;-73
2021/03/13 05:08:32;;;;;;;3.70;0.95;;;;;;;6.13;89.16;98170.03;5062368;28;20067;-72
2021/03/13 05:10:59;;;;;;;3.88;0.90;;;;;;;6.16;90.07;98168.00;5075317;28;20056;-73
2021/03/13 05:13:25;;;;;;;7.00;0.93;;;;;;;6.04;91.46;98167.13;5076442;28;20101;-73
2021/03/13 05:15:51;;;;;;;4.80;0.82;;;;;;;6.04;91.04;98150.41;5076202;28;20056;-73
2021/03/13 05:18:17;;;;;;;8.57;1.70;;;;;;;6.01;92.23;98147.94;5076077;28;20089;-73
2021/03/13 05:20:44;;;;;;;4.47;1.10;;;;;;;5.95;92.95;98136.00;5076198;28;20059;-73
2021/03/13 05:23:10;;;;;;;5.93;0.88;;;;;;;5.93;93.01;98128.19;5076237;28;20044;-73
2021/03/13 05:25:36;;;;;;;3.15;0.85;;;;;;;5.90;92.13;98128.41;5058528;28;20045;-73
2021/03/13 05:28:03;;;;;;;7.00;1.00;;;;;;;6.02;90.79;98113.44;5076335;28;20053;-73
2021/03/13 05:30:29;;;;;;;3.60;1.10;;;;;;;6.04;91.46;98127.41;5076712;28;20070;-73
2021/03/13 05:32:55;;;;;;;9.38;1.15;;;;;;;6.02;91.19;98110.78;5076232;28;20060;-73
2021/03/13 05:35:22;;;;;;;4.75;0.90;;;;;;;6.15;90.27;98115.16;5075799;28;20384;-72
2021/03/13 05:37:48;;;;;;;8.18;1.65;;;;;;;6.13;90.73;98127.66;5076042;28;20056;-73
2021/03/13 05:40:15;;;;;;;7.82;2.20;;;;;;;6.06;91.13;98088.41;5075935;28;20056;-73
2021/03/13 05:42:41;;;;;;;6.30;0.85;;;;;;;6.06;90.74;98127.28;5076000;28;20053;-72
2021/03/13 05:45:08;;;;;;;7.40;1.05;;;;;;;6.00;92.64;98106.53;5075986;28;20315;-73
2021/03/13 05:47:38;;;;;;;7.97;1.63;;;;;;;5.91;92.40;98098.34;5075741;28;20048;-73
2021/03/13 05:50:11;;;;;;;5.68;0.80;;;;;;;5.93;93.32;98095.53;5075474;28;20056;-73
2021/03/13 05:52:38;;;;;;;5.05;0.85;;;;;;;5.96;91.74;98092.69;5075567;28;20056;-73
2021/03/13 05:55:07;;;;;;;3.28;1.38;;;;;;;5.93;92.06;98083.16;5075433;28;20074;-73
2021/03/13 05:57:34;;;;;;;3.63;0.77;;;;;;;5.98;91.31;98081.03;5075450;28;20048;-73
2021/03/13 06:00:03;;;;;;;5.25;0.80;;;;;;;5.93;91.85;98084.97;5075264;28;20053;-73
2021/03/13 06:02:29;;;;;;;4.25;1.10;;;;;;;5.94;92.11;98068.13;5075615;28;20060;-73
2021/03/13 06:04:56;;;;;;;5.10;0.80;;;;;;;5.94;92.62;98074.25;5074282;28;20053;-73
2021/03/13 06:07:25;;;;;;;5.53;1.00;;;;;;;5.93;91.86;98058.47;5041490;28;20052;-73
2021/03/13 06:09:56;;;;;;;4.97;0.75;;;;;;;5.93;92.19;98064.63;5075118;28;20433;-73
2021/03/13 06:12:24;;;;;;;5.47;1.13;;;;;;;5.79;92.20;98033.06;5041280;28;20462;-74
2021/03/13 06:14:52;;;;;;;3.70;0.70;;;;;;;5.95;92.16;98054.75;5075154;28;20127;-73
2021/03/13 06:17:19;;;;;;;3.03;0.60;;;;;;;5.89;93.14;98068.47;5075034;28;20059;-73
2021/03/13 06:19:58;;;;;;;5.60;0.70;;;;;;;5.95;91.91;98054.75;5075322;28;20048;-73
2021/03/13 06:22:32;;;;;;;3.35;1.00;;;;;;;5.94;92.32;98054.91;5059048;28;20350;-73
2021/03/13 06:25:18;;;;;;;2.47;0.73;;;;;;;5.97;92.28;98038.75;5076135;28;20052;-73
2021/03/13 06:28:00;;;;;;;2.75;0.77;;;;;;;5.95;92.46;98046.00;5076668;28;20049;-73
2021/03/13 06:30:28;;;;;;;2.97;0.70;;;;;;;5.93;92.28;98054.03;5058576;28;20134;-73
2021/03/13 06:32:54;;;;;;;2.50;0.60;;;;;;;5.96;92.79;98032.63;5076079;28;20082;-74
2021/03/13 06:35:23;;;;;;;4.22;0.60;;;;;;;5.81;92.77;98008.16;5074957;28;20049;-73
2021/03/13 06:37:50;;;;;;;2.58;0.50;;;;;;;5.93;93.55;98037.28;5075040;28;20059;-73
2021/03/13 06:40:34;;;;;;;1.85;0.50;;;;;;;5.99;92.21;98015.66;5075070;28;20448;-73
2021/03/13 06:43:17;;;;;;;1.80;0.57;;;;;;;5.81;92.55;98008.16;5075942;28;20052;-73
2021/03/13 06:45:55;;;;;;;4.35;0.70;;;;;;;5.98;93.02;98025.41;5059408;28;20044;-73
2021/03/13 06:48:33;;;;;;;2.47;0.68;;;;;;;5.94;93.39;98017.81;5058073;28;20049;-74
2021/03/13 06:51:16;;;;;;;3.83;0.60;;;;;;;5.94;93.13;98017.81;5075103;28;20063;-74
2021/03/13 06:53:44;;;;;;;3.40;0.45;;;;;;;5.98;93.30;98040.44;5057379;28;20044;-73
2021/03/13 06:56:12;;;;;;;2.65;0.88;;;;;;;5.93;93.55;98058.47;5074765;28;20075;-73
2021/03/13 06:58:40;;;;;;;3.35;0.50;;;;;;;5.90;94.31;98101.94;5076484;28;20447;-74
2021/03/13 07:01:09;;;;;;;4.65;0.90;;;;;;;5.87;94.77;98111.91;5079006;28;20131;-72
2021/03/13 07:03:51;;;;;;;4.30;0.80;;;;;;;5.83;96.57;98167.72;5045089;28;20098;-71
2021/03/13 07:06:19;;;;;;;4.80;0.60;;;;;;;5.58;96.91;98214.50;5060916;28;20044;-71
2021/03/13 07:08:49;;;;;;;3.10;0.80;;;;;;;4.85;91.93;98184.38;5087678;28;20453;-72
2021/03/13 07:11:18;;;;;;;7.78;0.65;;;;;;;4.37;92.65;98212.25;5098866;28;20051;-72
2021/03/13 07:13:50;;;;;;;3.53;0.52;;;;;;;4.30;91.56;98221.53;5098973;28;20052;-73
2021/03/13 07:16:27;;;;;;;3.70;0.55;;;;;;;4.27;93.33;98201.44;5099152;28;20380;-72
2021/03/13 07:19:06;;;;;;;3.50;0.73;;;;;;;4.23;94.37;98133.94;5098851;28;20047;-73
2021/03/13 07:21:37;;;;;;;2.90;0.57;;;;;;;4.39;93.96;98141.66;5099003;28;20048;-72
2021/03/13 07:24:05;;;;;;;;;;;;;;;4.46;93.06;98136.78;5099093;28;20059;-73
2021/03/13 07:26:37;;;;;;;4.15;0.85;;;;;;;4.48;93.19;98130.47;5098819;28;19920;-73
2021/03/13 07:29:05;;;;;;;1.45;0.47;;;;;;;4.53;92.44;98142.53;5098761;28;20048;-76
2021/03/13 07:31:40;;;;;;;0.40;0.40;;;;;;;4.60;90.16;98126.16;5064666;28;20322;-74
2021/03/13 07:34:19;;;;;;;1.52;0.40;;;;;;;4.69;90.36;98132.56;5061938;28;20441;-73
2021/03/13 07:36:51;;;;;;;6.25;0.63;;;;;;;4.67;90.60;98136.25;5067183;28;20345;-73
2021/03/13 07:39:20;;;;;;;1.48;0.50;;;;;;;4.62;90.88;98139.22;5064836;28;20393;-75
2021/03/13 07:41:57;;;;;;;1.52;0.50;;;;;;;4.60;89.32;98138.50;5049136;28;20071;-77
2021/03/13 07:44:23;;;;;;;2.13;0.47;;;;;;;4.60;89.42;98147.28;5058864;28;20067;-75
2021/03/13 07:46:50;;;;;;;3.78;0.80;;;;;;;4.61;90.62;98146.34;5058531;28;20053;-76
2021/03/13 07:49:17;;;;;;;4.53;0.70;;;;;;;4.70;88.80;98151.94;5059193;28;20454;-74
2021/03/13 07:51:44;;;;;;;2.75;0.77;;;;;;;4.61;87.53;98137.53;5041781;28;20052;-76
2021/03/13 07:54:11;;;;;;;0.90;0.43;;;;;;;4.76;88.76;98162.91;5083004;28;20040;-74
2021/03/13 07:56:40;;;;;;;1.48;0.40;;;;;;;4.79;89.77;98161.03;5077030;28;20456;-74
2021/03/13 07:59:33;;;;;;;3.83;0.70;;;;;;;4.91;87.66;98159.31;5091159;28;20178;-75
2021/03/13 08:01:59;;;;;;;6.78;0.85;;;;;;;4.95;86.99;98161.63;5085968;28;20060;-77
2021/03/13 08:04:37;;;;;;;4.15;0.60;;;;;;;5.07;87.89;98151.97;5068827;28;20381;-75
2021/03/13 08:07:05;;;;;;;3.88;0.70;;;;;;;5.11;87.66;98147.31;5087359;28;20353;-75
2021/03/13 08:09:31;;;;;;;1.58;0.70;;;;;;;5.14;88.42;98161.16;5057518;28;20059;-74
2021/03/13 08:12:01;;;;;;;2.67;0.70;;;;;;;5.18;88.31;98155.69;5076989;28;20051;-74
2021/03/13 08:14:35;;;;;;;2.42;0.60;;;;;;;5.26;87.48;98172.69;5059579;28;20051;-72
2021/03/13 08:17:06;;;;;;;5.28;0.82;;;;;;;5.28;86.83;98165.50;5076997;28;20052;-73
2021/03/13 08:19:37;;;;;;;2.65;0.95;;;;;;;5.34;87.22;98160.72;5074673;28;20041;-74
2021/03/13 08:22:18;;;;;;;3.50;0.77;;;;;;;5.36;86.19;98158.81;5076988;28;20051;-78
2021/03/13 08:24:53;;;;;;;2.67;0.65;;;;;;;5.51;87.00;98170.09;5059621;28;20063;-75
2021/03/13 08:27:42;;;;;;;8.48;0.98;;;;;;;5.53;84.65;98154.94;5056592;28;20114;-74
2021/03/13 08:30:17;;;;;;;2.97;0.90;;;;;;;5.56;84.60;98158.19;5076662;28;20097;-78
2021/03/13 08:32:55;;;;;;;3.08;0.70;;;;;;;5.67;84.47;98180.41;5077161;28;20056;-72
2021/03/13 08:35:45;;;;;;;5.38;0.93;;;;;;;5.65;84.73;98150.53;5084621;28;20043;-75
2021/03/13 08:38:14;;;;;;;5.63;1.20;;;;;;;5.68;84.49;98160.91;5073446;28;20049;-73
2021/03/13 08:40:49;;;;;;;4.88;1.45;;;;;;;5.73;83.08;98168.53;5059573;28;20044;-75
2021/03/13 08:43:39;;;;;;;6.68;1.30;;;;;;;5.69;82.31;98163.47;5077111;28;20052;-75
2021/03/13 08:46:25;;;;;;;4.28;1.13;;;;;;;5.73;84.33;98160.56;5075664;28;20060;-74
2021/03/13 08:48:56;;;;;;;6.75;0.90;;;;;;;5.82;81.86;98160.75;5078795;28;20147;-74
2021/03/13 08:51:25;;;;;;;6.53;1.10;;;;;;;5.81;81.67;98160.84;5079653;28;20044;-75
2021/03/13 08:53:52;;;;;;;10.60;1.70;;;;;;;5.89;81.27;98170.88;5081292;28;20048;-76
2021/03/13 08:56:42;;;;;;;9.52;1.85;;;;;;;5.95;81.33;98154.56;5074839;28;20056;-74
2021/03/13 08:59:20;;;;;;;5.78;1.30;;;;;;;5.96;80.62;98170.34;5073125;28;20516;-76
2021/03/13 09:02:05;;;;;;;10.10;1.90;;;;;;;5.95;80.93;98146.59;5058711;28;20044;-74
2021/03/13 09:04:35;;;;;;;4.47;1.10;;;;;;;5.79;79.77;98121.28;5074939;28;20044;-76
2021/03/13 09:07:05;;;;;;;7.00;2.08;;;;;;;6.01;80.69;98156.75;5075926;28;20049;-74
2021/03/13 09:09:33;;;;;;;7.05;1.60;;;;;;;5.96;79.76;98162.38;5084571;28;20056;-75
2021/03/13 09:12:08;;;;;;;8.48;1.50;;;;;;;5.99;80.81;98161.28;5067438;28;20063;-76
2021/03/13 09:14:42;;;;;;;10.90;1.83;;;;;;;5.94;80.09;98176.69;5083099;28;20040;-80
2021/03/13 09:17:26;;;;;;;5.38;1.50;;;;;;;5.93;79.71;98169.69;5084838;28;20127;-74
2021/03/13 09:19:54;;;;;;;8.60;1.60;;;;;;;5.93;79.59;98157.31;5084404;28;20047;-75
2021/03/13 09:22:25;;;;;;;11.07;2.45;;;;;;;6.06;79.30;98165.19;5083868;28;20094;-77
2021/03/13 09:24:52;;;;;;;7.95;1.25;;;;;;;6.17;79.30;98163.56;5072162;28;20048;-74
2021/03/13 09:27:27;;;;;;;8.07;1.30;;;;;;;6.29;78.52;98172.38;5085800;28;20127;-75
2021/03/13 09:29:57;;;;;;;7.63;2.05;;;;;;;6.30;77.26;98180.22;5081954;28;20060;-74
2021/03/13 09:32:25;;;;;;;6.85;1.83;;;;;;;6.37;75.22;98180.59;5085005;28;20100;-74
2021/03/13 09:34:54;;;;;;;9.52;1.90;;;;;;;6.45;75.99;98164.97;5069545;28;20048;-72
2021/03/13 09:37:31;;;;;;;12.38;1.88;;;;;;;6.56;75.22;98172.13;5085746;28;20116;-75
2021/03/13 09:40:04;;;;;;;13.10;2.30;;;;;;;6.64;75.17;98164.41;5083187;28;20044;-74
2021/03/13 09:42:31;;;;;;;5.90;1.30;;;;;;;6.59;73.92;98165.72;5066567;28;20125;-75
2021/03/13 09:45:03;;;;;;;12.43;2.08;;;;;;;6.62;74.16;98184.91;5086126;28;20052;-74
2021/03/13 09:47:41;;;;;;;16.35;2.03;;;;;;;6.73;72.79;98168.16;5086651;28;20043;-75
2021/03/13 09:50:19;;;;;;;15.30;2.00;;;;;;;6.88;71.28;98173.22;5086291;28;20067;-74
2021/03/13 09:52:48;;;;;;;13.25;4.25;;;;;;;6.92;71.54;98175.53;5086043;28;20054;-74
2021/03/13 09:55:22;;;;;;;10.60;2.28;;;;;;;7.02;73.62;98180.09;5084460;28;20048;-75
2021/03/13 09:57:54;;;;;;;11.45;2.35;;;;;;;7.08;73.12;98176.97;5060936;28;20059;-73
2021/03/13 10:00:37;;;;;;;13.02;2.40;;;;;;;7.19;73.05;98174.31;5085934;28;20044;-73
2021/03/13 10:03:10;;;;;;;13.52;2.08;;;;;;;7.18;69.72;98177.94;5084261;28;20106;-74
2021/03/13 10:05:37;;;;;;;12.45;1.92;;;;;;;7.23;68.06;98187.34;5082547;28;20052;-74
2021/03/13 10:08:09;;;;;;;11.70;2.00;;;;;;;7.23;69.71;98184.72;5067162;28;20047;-73
2021/03/13 10:10:35;;;;;;;12.48;2.45;;;;;;;7.27;71.48;98192.28;5092799;28;20040;-74
2021/03/13 10:13:05;;;;;;;12.40;1.92;;;;;;;7.19;68.18;98166.34;5094907;28;20349;-74
2021/03/13 10:15:37;;;;;;;12.55;2.33;;;;;;;7.12;67.78;98180.22;5093657;28;20051;-74
2021/03/13 10:18:06;;;;;;;14.65;2.60;;;;;;;7.10;68.66;98222.81;5076998;28;20059;-74
2021/03/13 10:20:47;;;;;;;14.60;3.00;;;;;;;6.98;67.95;98197.22;5095008;28;20052;-72
2021/03/13 10:23:28;;;;;;;14.10;2.47;;;;;;;6.92;71.01;98204.69;5093577;28;20063;-74
2021/03/13 10:25:58;;;;;;;14.40;2.50;;;;;;;6.88;72.97;98210.34;5079296;28;20138;-73
2021/03/13 10:28:30;;;;;;;11.27;2.67;;;;;;;6.89;71.99;98210.25;5080759;28;20056;-74
2021/03/13 10:31:20;;;;;;;20.35;3.22;;;;;;;6.87;72.56;98228.06;5078942;28;20445;-74
2021/03/13 10:33:49;;;;;;;13.00;2.22;;;;;;;6.92;73.33;98194.09;5074472;28;20395;-74
2021/03/13 10:36:17;;;;;;;18.83;2.85;;;;;;;6.97;74.05;98195.53;5075028;28;20048;-74
2021/03/13 10:38:44;;;;;;;22.48;2.65;;;;;;;7.02;73.56;98203.97;5057371;28;20048;-74
2021/03/13 10:41:16;;;;;;;14.57;2.83;;;;;;;7.17;72.77;98194.84;5075139;28;20056;-74
2021/03/13 10:43:45;;;;;;;23.73;3.65;;;;;;;7.39;71.35;98169.25;5074815;28;20056;-75
2021/03/13 10:46:23;;;;;;;16.17;3.38;;;;;;;7.55;71.25;98194.53;5057698;28;20041;-75
2021/03/13 10:48:53;;;;;;;19.40;4.20;;;;;;;7.58;71.23;98181.03;5074313;28;20079;-74
2021/03/13 10:51:21;;;;;;;15.82;3.97;;;;;;;7.57;69.98;98184.66;5074035;28;20072;-75
2021/03/13 10:53:47;;;;;;;21.25;3.35;;;;;;;7.40;68.87;98184.19;5074767;28;20071;-76
2021/03/13 10:56:17;;;;;;;15.48;3.20;;;;;;;7.49;68.80;98185.28;5074638;28;20049;-78
2021/03/13 10:58:49;;;;;;;19.08;3.22;;;;;;;7.50;67.24;98191.41;5077314;28;20067;-75
2021/03/13 11:01:16;;;;;;;17.08;4.00;;;;;;;7.46;66.02;98218.22;5095188;28;20055;-76
2021/03/13 11:03:44;;;;;;;14.18;2.72;;;;;;;7.37;65.58;98186.25;5094908;28;20417;-76
2021/03/13 11:06:12;;;;;;;23.85;3.05;;;;;;;7.29;67.40;98163.81;5095314;28;20074;-77
2021/03/13 11:08:41;;;;;;;17.90;4.40;;;;;;;7.34;66.36;98180.22;5094726;28;20084;-78
2021/03/13 11:11:10;;;;;;;28.35;3.92;;;;;;;7.42;68.18;98184.91;5095040;28;20056;-74
2021/03/13 11:13:36;;;;;;;19.60;3.20;;;;;;;7.40;66.94;98210.72;5077151;28;20067;-77
2021/03/13 11:16:17;;;;;;;20.23;3.72;;;;;;;7.43;67.70;98186.63;5094927;28;20048;-74
2021/03/13 11:18:43;;;;;;;15.70;2.63;;;;;;;7.65;66.01;98190.19;5094882;28;20044;-77
2021/03/13 11:21:09;;;;;;;14.48;2.28;;;;;;;7.73;66.31;98205.47;5095088;28;20056;-73
2021/03/13 11:23:36;;;;;;;17.15;2.72;;;;;;;7.33;68.41;98230.75;5095041;28;20056;-74
2021/03/13 11:26:04;;;;;;;13.90;2.70;;;;;;;7.06;71.25;98226.66;5076940;28;20036;-74
2021/03/13 11:28:30;;;;;;;11.20;2.42;;;;;;;6.77;74.88;98227.09;5094904;28;20051;-73
2021/03/13 11:30:56;;;;;;;16.15;2.63;;;;;;;6.22;79.91;98240.91;5094874;28;20048;-76
2021/03/13 11:33:22;;;;;;;13.20;2.08;;;;;;;6.18;82.55;98221.75;5094947;28;20455;-72
2021/03/13 11:35:49;;;;;;;20.13;3.30;;;;;;;6.22;84.03;98217.88;5094615;28;20272;-73
2021/03/13 11:38:29;;;;;;;21.02;2.85;;;;;;;6.45;81.14;98214.47;5078956;28;20143;-73
2021/03/13 11:40:55;;;;;;;17.42;3.67;;;;;;;6.68;80.84;98196.81;5094685;28;20392;-72
2021/03/13 11:43:21;;;;;;;24.80;4.38;;;;;;;7.06;80.69;98200.13;5094861;28;20048;-72
2021/03/13 11:45:47;;;;;;;19.13;2.88;;;;;;;7.35;76.55;98181.06;5080174;28;20055;-73
2021/03/13 11:48:17;;;;;;;16.88;3.47;;;;;;;7.42;75.64;98190.22;5079103;28;20108;-73
2021/03/13 11:50:44;;;;;;;15.50;3.10;;;;;;;7.30;77.28;98180.59;5094373;28;20326;-75
2021/03/13 11:53:10;;;;;;;19.90;4.53;;;;;;;7.17;78.14;98199.28;5098214;28;20056;-73
2021/03/13 11:55:37;;;;;;;19.25;3.05;;;;;;;7.01;76.17;98192.53;5098230;28;20063;-73